createdAt,value
2022-08-19T00:00:45.087Z,0.00
2022-08-19T00:01:45.218Z,0.00
2022-08-19T00:02:49.895Z,0.00
2022-08-19T00:03:45.631Z,0.00
2022-08-19T00:04:45.763Z,0.00
2022-08-19T00:05:45.893Z,0.00
2022-08-19T00:06:46.181Z,0.00
2022-08-19T00:07:46.218Z,0.00
2022-08-19T00:08:46.482Z,0.00
2022-08-19T00:09:46.540Z,0.00
2022-08-19T00:10:46.707Z,0.00
2022-08-19T00:11:47.001Z,0.00
2022-08-19T00:12:47.229Z,0.00
2022-08-19T00:13:47.209Z,0.00
2022-08-19T00:14:47.455Z,0.00
2022-08-19T00:15:47.596Z,0.00
2022-08-19T00:16:47.721Z,0.00
2022-08-19T00:17:47.922Z,0.00
2022-08-19T00:18:48.090Z,0.00
2022-08-19T00:19:48.220Z,0.00
2022-08-19T00:20:48.381Z,0.00
2022-08-19T00:21:48.628Z,0.00
2022-08-19T00:22:48.800Z,0.00
2022-08-19T00:23:48.890Z,0.00
2022-08-19T00:24:50.891Z,0.00
2022-08-19T00:25:49.271Z,0.00
2022-08-19T00:26:49.481Z,0.00
2022-08-19T00:27:49.723Z,0.00
2022-08-19T00:28:49.833Z,0.00
2022-08-19T00:29:52.603Z,0.00
2022-08-19T00:30:50.193Z,0.00
2022-08-19T00:31:50.784Z,0.00
2022-08-19T00:32:50.623Z,0.00
2022-08-19T00:33:50.696Z,0.00
2022-08-19T00:34:50.853Z,0.00
2022-08-19T00:35:56.003Z,0.00
2022-08-19T00:36:52.249Z,0.00
2022-08-19T00:37:51.371Z,0.00
2022-08-19T00:38:51.639Z,0.00
2022-08-19T00:39:51.818Z,0.00
2022-08-19T00:40:51.942Z,0.00
2022-08-19T00:41:52.115Z,0.00
2022-08-19T00:42:52.459Z,0.00
2022-08-19T00:43:52.433Z,0.00
2022-08-19T00:44:52.634Z,0.00
2022-08-19T00:45:52.865Z,0.00
2022-08-19T00:46:55.580Z,0.00
2022-08-19T00:47:54.154Z,0.00
2022-08-19T00:48:53.396Z,0.00
2022-08-19T00:49:53.481Z,0.00
2022-08-19T00:50:53.661Z,0.00
2022-08-19T00:51:53.922Z,0.00
2022-08-19T00:52:54.093Z,0.00
2022-08-19T00:53:54.164Z,0.00
2022-08-19T00:54:54.444Z,0.00
2022-08-19T00:55:54.608Z,0.00
2022-08-19T00:56:54.724Z,0.00
2022-08-19T00:57:54.924Z,0.00
2022-08-19T00:58:55.101Z,0.00
2022-08-19T01:00:01.879Z,0.00
2022-08-19T01:00:56.404Z,0.00
2022-08-19T01:01:55.689Z,0.00
2022-08-19T01:02:55.737Z,0.00
2022-08-19T01:03:57.043Z,0.00
2022-08-19T01:04:56.148Z,0.00
2022-08-19T01:05:56.254Z,0.00
2022-08-19T01:06:56.375Z,0.00
2022-08-19T01:07:56.545Z,0.00
2022-08-19T01:08:56.707Z,0.00
2022-08-19T01:09:56.978Z,0.00
2022-08-19T01:10:57.069Z,0.00
2022-08-19T01:11:57.236Z,0.00
2022-08-19T01:12:57.478Z,0.00
2022-08-19T01:13:57.601Z,0.00
2022-08-19T01:14:57.756Z,0.00
2022-08-19T01:15:58.058Z,0.00
2022-08-19T01:16:58.173Z,0.00
2022-08-19T01:17:58.293Z,0.00
2022-08-19T01:18:58.468Z,0.00
2022-08-19T01:19:58.693Z,0.00
2022-08-19T01:20:58.826Z,0.00
2022-08-19T01:21:58.988Z,0.00
2022-08-19T01:23:00.242Z,0.00
2022-08-19T01:23:59.341Z,0.00
2022-08-19T01:24:59.501Z,0.00
2022-08-19T01:25:59.779Z,0.00
2022-08-19T01:26:59.846Z,0.00
2022-08-19T01:28:02.156Z,0.00
2022-08-19T01:29:01.288Z,0.00
2022-08-19T01:30:00.402Z,0.00
2022-08-19T01:31:00.560Z,0.00
2022-08-19T01:32:00.799Z,0.00
2022-08-19T01:33:00.895Z,0.00
2022-08-19T01:34:01.045Z,0.00
2022-08-19T01:35:01.243Z,0.00
2022-08-19T01:36:01.431Z,0.00
2022-08-19T01:37:01.550Z,0.00
2022-08-19T01:38:01.708Z,0.00
2022-08-19T01:39:01.928Z,0.00
2022-08-19T01:40:04.379Z,0.00
2022-08-19T01:41:03.249Z,0.00
2022-08-19T01:42:03.421Z,0.00
2022-08-19T01:43:02.604Z,0.00
2022-08-19T01:44:13.781Z,0.00
2022-08-19T01:45:03.970Z,0.00
2022-08-19T01:46:03.130Z,0.00
2022-08-19T01:47:03.290Z,0.00
2022-08-19T01:48:03.450Z,0.00
2022-08-19T01:49:03.661Z,0.00
2022-08-19T01:50:03.800Z,0.00
2022-08-19T01:51:04.001Z,0.00
2022-08-19T01:52:04.179Z,0.00
2022-08-19T01:53:06.988Z,0.00
2022-08-19T01:54:04.511Z,0.00
2022-08-19T01:55:04.718Z,0.00
2022-08-19T01:56:04.849Z,0.00
2022-08-19T01:57:05.001Z,0.00
2022-08-19T01:58:05.247Z,0.00
2022-08-19T01:59:05.361Z,0.00
2022-08-19T02:00:05.561Z,0.00
2022-08-19T02:01:05.823Z,0.00
2022-08-19T02:02:05.971Z,0.00
2022-08-19T02:03:06.072Z,0.00
2022-08-19T02:04:06.261Z,0.00
2022-08-19T02:05:06.515Z,0.00
2022-08-19T02:06:06.612Z,0.00
2022-08-19T02:07:06.761Z,0.00
2022-08-19T02:08:07.051Z,0.00
2022-08-19T02:09:07.122Z,0.00
2022-08-19T02:10:09.429Z,0.00
2022-08-19T02:11:08.487Z,0.00
2022-08-19T02:12:07.622Z,0.00
2022-08-19T02:13:07.856Z,0.00
2022-08-19T02:14:08.006Z,0.00
2022-08-19T02:15:08.154Z,0.00
2022-08-19T02:16:08.383Z,0.00
2022-08-19T02:17:08.556Z,0.00
2022-08-19T02:18:08.704Z,0.00
2022-08-19T02:19:08.865Z,0.00
2022-08-19T02:20:09.093Z,0.00
2022-08-19T02:21:09.223Z,0.00
2022-08-19T02:22:09.383Z,0.00
2022-08-19T02:23:13.853Z,0.00
2022-08-19T02:24:10.724Z,0.00
2022-08-19T02:25:09.904Z,0.00
2022-08-19T02:26:10.225Z,0.00
2022-08-19T02:27:10.277Z,0.00
2022-08-19T02:28:10.443Z,0.00
2022-08-19T02:29:10.652Z,0.00
2022-08-19T02:30:14.154Z,0.00
2022-08-19T02:31:10.974Z,0.00
2022-08-19T02:32:11.114Z,0.00
2022-08-19T02:33:11.340Z,0.00
2022-08-19T02:34:11.445Z,0.00
2022-08-19T02:35:12.313Z,0.00
2022-08-19T02:36:11.846Z,0.00
2022-08-19T02:37:11.945Z,0.00
2022-08-19T02:38:12.144Z,0.00
2022-08-19T02:39:12.396Z,0.00
2022-08-19T02:40:12.857Z,0.00
2022-08-19T02:41:12.652Z,0.00
2022-08-19T02:42:12.897Z,0.00
2022-08-19T02:43:12.994Z,0.00
2022-08-19T02:44:29.689Z,0.00
2022-08-19T02:45:14.376Z,0.00
2022-08-19T02:46:13.570Z,0.00
2022-08-19T02:47:13.685Z,0.00
2022-08-19T02:48:21.475Z,0.00
2022-08-19T02:49:15.025Z,0.00
2022-08-19T02:50:14.308Z,0.00
2022-08-19T02:51:14.375Z,0.00
2022-08-19T02:52:14.545Z,0.00
2022-08-19T02:53:14.779Z,0.00
2022-08-19T02:54:14.889Z,0.00
2022-08-19T02:55:15.058Z,0.00
2022-08-19T02:56:15.226Z,0.00
2022-08-19T02:57:15.379Z,0.00
2022-08-19T02:58:15.665Z,0.00
2022-08-19T02:59:15.739Z,0.00
2022-08-19T03:00:15.906Z,0.00
2022-08-19T03:01:16.120Z,0.00
2022-08-19T03:02:16.276Z,0.00
2022-08-19T03:03:16.434Z,0.00
2022-08-19T03:04:16.669Z,0.00
2022-08-19T03:05:16.819Z,0.00
2022-08-19T03:06:17.019Z,0.00
2022-08-19T03:07:17.181Z,0.00
2022-08-19T03:08:17.327Z,0.00
2022-08-19T03:09:17.485Z,0.00
2022-08-19T03:10:17.774Z,0.00
2022-08-19T03:11:17.833Z,0.00
2022-08-19T03:12:18.027Z,0.00
2022-08-19T03:13:18.260Z,0.00
2022-08-19T03:14:18.376Z,0.00
2022-08-19T03:15:18.548Z,0.00
2022-08-19T03:16:18.801Z,0.00
2022-08-19T03:17:18.869Z,0.00
2022-08-19T03:18:19.029Z,0.00
2022-08-19T03:19:19.270Z,0.00
2022-08-19T03:20:19.406Z,0.00
2022-08-19T03:21:19.548Z,0.00
2022-08-19T03:22:19.752Z,0.00
2022-08-19T03:23:19.898Z,0.00
2022-08-19T03:24:20.188Z,0.00
2022-08-19T03:25:20.298Z,0.00
2022-08-19T03:26:20.439Z,0.00
2022-08-19T03:27:20.621Z,4.00
2022-08-19T03:28:20.837Z,4.00
2022-08-19T03:29:30.328Z,0.00
2022-08-19T03:30:23.367Z,4.00
2022-08-19T03:31:44.283Z,4.00
2022-08-19T03:32:32.978Z,8.00
2022-08-19T03:33:27.591Z,4.00
2022-08-19T03:34:22.892Z,4.00
2022-08-19T03:35:22.000Z,8.00
2022-08-19T03:36:22.171Z,12.00
2022-08-19T03:37:22.432Z,12.00
2022-08-19T03:38:22.524Z,16.00
2022-08-19T03:39:22.715Z,16.00
2022-08-19T03:40:22.905Z,20.00
2022-08-19T03:41:23.070Z,20.00
2022-08-19T03:42:38.826Z,28.00
2022-08-19T03:43:24.459Z,32.00
2022-08-19T03:44:23.632Z,36.00
2022-08-19T03:45:23.814Z,36.00
2022-08-19T03:46:24.004Z,44.00
2022-08-19T03:47:24.134Z,48.00
2022-08-19T03:48:24.351Z,56.00
2022-08-19T03:49:27.093Z,60.00
2022-08-19T03:50:24.672Z,68.00
2022-08-19T03:51:31.152Z,72.00
2022-08-19T03:52:26.041Z,76.00
2022-08-19T03:53:25.231Z,84.00
2022-08-19T03:54:25.541Z,92.00
2022-08-19T03:55:25.590Z,100.00
2022-08-19T03:56:25.752Z,108.00
2022-08-19T03:57:31.800Z,120.00
2022-08-19T03:58:27.124Z,144.00
2022-08-19T03:59:26.312Z,168.00
2022-08-19T04:00:26.584Z,200.00
2022-08-19T04:01:33.048Z,220.00
2022-08-19T04:02:27.822Z,240.00
2022-08-19T04:03:27.011Z,264.00
2022-08-19T04:04:29.051Z,280.00
2022-08-19T04:05:27.825Z,296.00
2022-08-19T04:06:27.543Z,324.00
2022-08-19T04:07:27.726Z,348.00
2022-08-19T04:08:27.863Z,384.00
2022-08-19T04:09:28.075Z,424.00
2022-08-19T04:10:28.281Z,468.00
2022-08-19T04:11:43.181Z,508.00
2022-08-19T04:12:29.533Z,548.00
2022-08-19T04:13:28.803Z,564.00
2022-08-19T04:14:28.950Z,592.00
2022-08-19T04:15:29.094Z,600.00
2022-08-19T04:16:34.985Z,628.00
2022-08-19T04:17:30.434Z,656.00
2022-08-19T04:18:32.563Z,652.00
2022-08-19T04:19:30.775Z,668.00
2022-08-19T04:20:29.927Z,656.00
2022-08-19T04:21:30.196Z,648.00
2022-08-19T04:22:30.311Z,668.00
2022-08-19T04:23:30.474Z,688.00
2022-08-19T04:24:30.808Z,720.00
2022-08-19T04:25:30.845Z,752.00
2022-08-19T04:26:31.113Z,768.00
2022-08-19T04:27:31.213Z,800.00
2022-08-19T04:28:31.354Z,824.00
2022-08-19T04:29:31.581Z,852.00
2022-08-19T04:30:31.763Z,888.00
2022-08-19T04:31:31.865Z,916.00
2022-08-19T04:32:32.069Z,932.00
2022-08-19T04:33:32.185Z,952.00
2022-08-19T04:34:32.393Z,952.00
2022-08-19T04:35:32.598Z,952.00
2022-08-19T04:36:32.723Z,972.00
2022-08-19T04:37:35.344Z,996.00
2022-08-19T04:38:33.187Z,1024.00
2022-08-19T04:39:33.322Z,1052.00
2022-08-19T04:40:33.456Z,1080.00
2022-08-19T04:41:33.706Z,1116.00
2022-08-19T04:42:33.829Z,1148.00
2022-08-19T04:43:33.977Z,1184.00
2022-08-19T04:44:35.129Z,1220.00
2022-08-19T04:45:39.496Z,1276.00
2022-08-19T04:46:40.065Z,1336.00
2022-08-19T04:47:47.443Z,1416.00
2022-08-19T04:48:35.932Z,1500.00
2022-08-19T04:49:36.028Z,1580.00
2022-08-19T04:50:35.184Z,1676.00
2022-08-19T04:51:35.439Z,1760.00
2022-08-19T04:52:35.537Z,1852.00
2022-08-19T04:53:37.778Z,1980.00
2022-08-19T04:54:38.285Z,2080.00
2022-08-19T04:55:38.316Z,2184.00
2022-08-19T04:56:36.251Z,2312.00
2022-08-19T04:57:36.509Z,2440.00
2022-08-19T04:58:36.635Z,2604.00
2022-08-19T04:59:36.808Z,2780.00
2022-08-19T05:00:37.044Z,2952.00
2022-08-19T05:01:37.170Z,3100.00
2022-08-19T05:02:37.296Z,3284.00
2022-08-19T05:03:37.479Z,3472.00
2022-08-19T05:04:37.758Z,3544.00
2022-08-19T05:05:45.205Z,3572.00
2022-08-19T05:06:39.017Z,3628.00
2022-08-19T05:07:38.198Z,3740.00
2022-08-19T05:08:38.371Z,3808.00
2022-08-19T05:09:55.347Z,3920.00
2022-08-19T05:10:39.711Z,4028.00
2022-08-19T05:11:38.971Z,4128.00
2022-08-19T05:12:39.060Z,4208.00
2022-08-19T05:13:39.241Z,4272.00
2022-08-19T05:14:39.549Z,4328.00
2022-08-19T05:15:39.589Z,4352.00
2022-08-19T05:16:39.770Z,4300.00
2022-08-19T05:17:40.031Z,4192.00
2022-08-19T05:18:40.134Z,4116.00
2022-08-19T05:19:40.322Z,4088.00
2022-08-19T05:20:40.545Z,4112.00
2022-08-19T05:21:40.662Z,4160.00
2022-08-19T05:22:40.830Z,4268.00
2022-08-19T05:23:41.020Z,4352.00
2022-08-19T05:24:56.400Z,4304.00
2022-08-19T05:25:42.361Z,4424.00
2022-08-19T05:26:41.532Z,4424.00
2022-08-19T05:27:41.794Z,4488.00
2022-08-19T05:28:41.884Z,4672.00
2022-08-19T05:29:42.162Z,5968.00
2022-08-19T05:30:47.111Z,8020.00
2022-08-19T05:31:43.416Z,8856.00
2022-08-19T05:32:42.681Z,8568.00
2022-08-19T05:33:42.771Z,8368.00
2022-08-19T05:34:42.962Z,7916.00
2022-08-19T05:35:43.204Z,7200.00
2022-08-19T05:36:43.308Z,5416.00
2022-08-19T05:37:43.452Z,4872.00
2022-08-19T05:38:43.705Z,4512.00
2022-08-19T05:39:46.460Z,4516.00
2022-08-19T05:40:43.983Z,4792.00
2022-08-19T05:41:44.183Z,4824.00
2022-08-19T05:42:44.399Z,4668.00
2022-08-19T05:43:45.543Z,4572.00
2022-08-19T05:44:44.747Z,4564.00
2022-08-19T05:45:44.986Z,4640.00
2022-08-19T05:46:45.079Z,4704.00
2022-08-19T05:47:45.244Z,4664.00
2022-08-19T05:48:45.506Z,5000.00
2022-08-19T05:49:45.625Z,4912.00
2022-08-19T05:50:45.826Z,4852.00
2022-08-19T05:51:45.959Z,4556.00
2022-08-19T05:52:50.146Z,4668.00
2022-08-19T05:53:46.417Z,4852.00
2022-08-19T05:54:46.525Z,4764.00
2022-08-19T05:55:46.684Z,4964.00
2022-08-19T05:56:46.890Z,4616.00
2022-08-19T05:57:47.056Z,4800.00
2022-08-19T05:58:47.196Z,4728.00
2022-08-19T05:59:47.385Z,5052.00
2022-08-19T06:00:47.576Z,5652.00
2022-08-19T06:01:47.732Z,6304.00
2022-08-19T06:02:47.988Z,7116.00
2022-08-19T06:03:48.141Z,7680.00
2022-08-19T06:04:48.279Z,8892.00
2022-08-19T06:05:51.695Z,9320.00
2022-08-19T06:06:48.687Z,9692.00
2022-08-19T06:07:48.785Z,9488.00
2022-08-19T06:08:48.957Z,9144.00
2022-08-19T06:10:00.448Z,8940.00
2022-08-19T06:10:50.327Z,9272.00
2022-08-19T06:11:51.815Z,9252.00
2022-08-19T06:12:49.697Z,9336.00
2022-08-19T06:13:49.883Z,9436.00
2022-08-19T06:15:00.640Z,9528.00
2022-08-19T06:15:51.309Z,9636.00
2022-08-19T06:16:50.399Z,9372.00
2022-08-19T06:17:50.581Z,9388.00
2022-08-19T06:18:50.817Z,9396.00
2022-08-19T06:19:50.958Z,9412.00
2022-08-19T06:20:58.195Z,9240.00
2022-08-19T06:21:52.380Z,9252.00
2022-08-19T06:22:51.485Z,9720.00
2022-08-19T06:23:51.667Z,9688.00
2022-08-19T06:24:51.960Z,9696.00
2022-08-19T06:25:52.010Z,10052.00
2022-08-19T06:26:52.278Z,10008.00
2022-08-19T06:28:13.905Z,10264.00
2022-08-19T06:28:53.529Z,10060.00
2022-08-19T06:29:52.728Z,9848.00
2022-08-19T06:30:52.860Z,10024.00
2022-08-19T06:31:53.029Z,10208.00
2022-08-19T06:32:53.190Z,9900.00
2022-08-19T06:33:53.360Z,9436.00
2022-08-19T06:34:53.559Z,9256.00
2022-08-19T06:35:53.711Z,9712.00
2022-08-19T06:36:53.870Z,10300.00
2022-08-19T06:37:54.039Z,10268.00
2022-08-19T06:38:54.201Z,10444.00
2022-08-19T06:39:54.409Z,10496.00
2022-08-19T06:40:54.531Z,10288.00
2022-08-19T06:41:58.151Z,9648.00
2022-08-19T06:42:55.530Z,9808.00
2022-08-19T06:43:55.736Z,9944.00
2022-08-19T06:44:55.220Z,10060.00
2022-08-19T06:45:55.362Z,9996.00
2022-08-19T06:46:55.532Z,10272.00
2022-08-19T06:47:55.703Z,10632.00
2022-08-19T06:48:55.879Z,10968.00
2022-08-19T06:49:56.061Z,11132.00
2022-08-19T06:50:57.241Z,10968.00
2022-08-19T06:51:56.417Z,11652.00
2022-08-19T06:52:56.705Z,13080.00
2022-08-19T06:53:56.746Z,12808.00
2022-08-19T06:54:57.010Z,12748.00
2022-08-19T06:55:57.093Z,12400.00
2022-08-19T06:56:57.255Z,12556.00
2022-08-19T06:57:57.517Z,12812.00
2022-08-19T06:58:57.586Z,13332.00
2022-08-19T06:59:57.767Z,13636.00
2022-08-19T07:00:58.007Z,13472.00
2022-08-19T07:01:58.102Z,13844.00
2022-08-19T07:03:01.878Z,13652.00
2022-08-19T07:03:59.447Z,13744.00
2022-08-19T07:04:58.637Z,13972.00
2022-08-19T07:05:58.767Z,14716.00
2022-08-19T07:06:58.927Z,14576.00
2022-08-19T07:08:04.596Z,14064.00
2022-08-19T07:09:00.257Z,13600.00
2022-08-19T07:10:01.821Z,13612.00
2022-08-19T07:10:59.678Z,13376.00
2022-08-19T07:11:59.766Z,13288.00
2022-08-19T07:13:00.011Z,13600.00
2022-08-19T07:14:00.127Z,13900.00
2022-08-19T07:15:00.306Z,14244.00
2022-08-19T07:16:00.569Z,14676.00
2022-08-19T07:17:01.658Z,14916.00
2022-08-19T07:18:00.846Z,14788.00
2022-08-19T07:19:11.801Z,14044.00
2022-08-19T07:20:05.547Z,11920.00
2022-08-19T07:21:01.359Z,11240.00
2022-08-19T07:22:01.623Z,8804.00
2022-08-19T07:23:01.737Z,7672.00
2022-08-19T07:24:05.392Z,6996.00
2022-08-19T07:25:02.119Z,6284.00
2022-08-19T07:27:02.451Z,5500.00
2022-08-19T07:28:02.640Z,5648.00
2022-08-19T07:29:02.884Z,5452.00
2022-08-19T07:30:03.008Z,4928.00
2022-08-19T07:31:03.141Z,4952.00
2022-08-19T07:32:03.368Z,5208.00
2022-08-19T07:33:03.747Z,4924.00
2022-08-19T07:34:03.632Z,5128.00
2022-08-19T07:35:03.918Z,4700.00
2022-08-19T07:36:04.002Z,4540.00
2022-08-19T07:37:04.183Z,4452.00
2022-08-19T07:38:04.373Z,4940.00
2022-08-19T07:39:04.561Z,5576.00
2022-08-19T07:40:04.757Z,5648.00
2022-08-19T07:41:04.913Z,5692.00
2022-08-19T07:42:05.041Z,5952.00
2022-08-19T07:43:05.223Z,6844.00
2022-08-19T07:44:05.491Z,7860.00
2022-08-19T07:45:05.573Z,9456.00
2022-08-19T07:46:05.783Z,9900.00
2022-08-19T07:47:05.913Z,9368.00
2022-08-19T07:48:06.248Z,9388.00
2022-08-19T07:49:06.303Z,8452.00
2022-08-19T07:50:06.443Z,7464.00
2022-08-19T07:51:06.643Z,7820.00
2022-08-19T07:52:06.811Z,9084.00
2022-08-19T07:53:06.984Z,10228.00
2022-08-19T07:54:07.183Z,11328.00
2022-08-19T07:55:07.390Z,10960.00
2022-08-19T07:56:08.504Z,9708.00
2022-08-19T07:57:07.688Z,9404.00
2022-08-19T07:58:07.923Z,8280.00
2022-08-19T07:59:08.027Z,7344.00
2022-08-19T08:00:08.176Z,7660.00
2022-08-19T08:01:08.437Z,8740.00
2022-08-19T08:02:08.600Z,8508.00
2022-08-19T08:03:08.705Z,8872.00
2022-08-19T08:04:08.916Z,8828.00
2022-08-19T08:05:09.055Z,8540.00
2022-08-19T08:06:09.324Z,8928.00
2022-08-19T08:07:09.420Z,8576.00
2022-08-19T08:08:09.596Z,8204.00
2022-08-19T08:09:09.955Z,7376.00
2022-08-19T08:10:20.650Z,7096.00
2022-08-19T08:11:11.165Z,8036.00
2022-08-19T08:12:33.076Z,8612.00
2022-08-19T08:13:11.644Z,9068.00
2022-08-19T08:14:29.288Z,8988.00
2022-08-19T08:15:12.415Z,9328.00
2022-08-19T08:16:14.119Z,9568.00
2022-08-19T08:17:11.208Z,9936.00
2022-08-19T08:18:11.446Z,8024.00
2022-08-19T08:19:12.586Z,6672.00
2022-08-19T08:20:12.708Z,7540.00
2022-08-19T08:21:12.025Z,9560.00
2022-08-19T08:22:12.079Z,10156.00
2022-08-19T08:23:12.336Z,9164.00
2022-08-19T08:24:12.448Z,9152.00
2022-08-19T08:25:12.590Z,10256.00
2022-08-19T08:26:12.869Z,9032.00
2022-08-19T08:27:12.971Z,7540.00
2022-08-19T08:28:17.914Z,6456.00
2022-08-19T08:29:14.399Z,6292.00
2022-08-19T08:30:13.483Z,7680.00
2022-08-19T08:31:13.660Z,8968.00
2022-08-19T08:32:15.014Z,6464.00
2022-08-19T08:33:14.021Z,6824.00
2022-08-19T08:34:14.245Z,7496.00
2022-08-19T08:35:14.387Z,7020.00
2022-08-19T08:36:14.564Z,6164.00
2022-08-19T08:37:16.130Z,5540.00
2022-08-19T08:38:14.993Z,5296.00
2022-08-19T08:39:15.134Z,6604.00
2022-08-19T08:40:15.387Z,8104.00
2022-08-19T08:41:15.492Z,8960.00
2022-08-19T08:42:17.529Z,9692.00
2022-08-19T08:43:15.916Z,10156.00
2022-08-19T08:44:16.027Z,10360.00
2022-08-19T08:45:16.186Z,10724.00
2022-08-19T08:46:30.519Z,9404.00
2022-08-19T08:47:17.504Z,9936.00
2022-08-19T08:48:22.079Z,10008.00
2022-08-19T08:49:17.923Z,8524.00
2022-08-19T08:50:17.024Z,7316.00
2022-08-19T08:51:20.389Z,7008.00
2022-08-19T08:52:17.478Z,6456.00
2022-08-19T08:53:17.589Z,6188.00
2022-08-19T08:54:18.735Z,5672.00
2022-08-19T08:55:17.946Z,5800.00
2022-08-19T08:56:18.430Z,5832.00
2022-08-19T08:57:18.265Z,6012.00
2022-08-19T08:58:18.464Z,6992.00
2022-08-19T08:59:18.662Z,8440.00
2022-08-19T09:00:18.850Z,10980.00
2022-08-19T09:01:19.035Z,13836.00
2022-08-19T09:02:19.174Z,15396.00
2022-08-19T09:03:19.326Z,14680.00
2022-08-19T09:04:19.485Z,12004.00
2022-08-19T09:05:22.299Z,8268.00
2022-08-19T09:06:19.796Z,6148.00
2022-08-19T09:07:34.791Z,5240.00
2022-08-19T09:08:21.294Z,4888.00
2022-08-19T09:09:20.363Z,5828.00
2022-08-19T09:10:20.544Z,7032.00
2022-08-19T09:11:42.527Z,7772.00
2022-08-19T09:12:26.937Z,8164.00
2022-08-19T09:13:22.047Z,7664.00
2022-08-19T09:14:48.875Z,7200.00
2022-08-19T09:15:22.421Z,6800.00
2022-08-19T09:16:27.953Z,6572.00
2022-08-19T09:17:22.718Z,6344.00
2022-08-19T09:18:21.985Z,6000.00
2022-08-19T09:19:22.362Z,5304.00
2022-08-19T09:20:22.238Z,4876.00
2022-08-19T09:21:25.708Z,4808.00
2022-08-19T09:22:25.976Z,4252.00
2022-08-19T09:23:26.926Z,3516.00
2022-08-19T09:24:23.020Z,3148.00
2022-08-19T09:25:27.120Z,3308.00
2022-08-19T09:26:24.307Z,3492.00
2022-08-19T09:27:42.476Z,3588.00
2022-08-19T09:28:26.964Z,3772.00
2022-08-19T09:29:23.906Z,3952.00
2022-08-19T09:30:24.026Z,4288.00
2022-08-19T09:31:24.160Z,4772.00
2022-08-19T09:32:26.240Z,5532.00
2022-08-19T09:33:24.574Z,5612.00
2022-08-19T09:34:24.680Z,4972.00
2022-08-19T09:35:24.895Z,3832.00
2022-08-19T09:36:34.490Z,2740.00
2022-08-19T09:37:26.204Z,2268.00
2022-08-19T09:38:25.462Z,1840.00
2022-08-19T09:39:25.541Z,1776.00
2022-08-19T09:40:26.755Z,2060.00
2022-08-19T09:41:25.937Z,2328.00
2022-08-19T09:42:29.957Z,2160.00
2022-08-19T09:43:33.197Z,2108.00
2022-08-19T09:44:27.432Z,2952.00
2022-08-19T09:45:26.600Z,3388.00
2022-08-19T09:46:26.814Z,2932.00
2022-08-19T09:47:26.941Z,2416.00
2022-08-19T09:48:27.112Z,1952.00
2022-08-19T09:49:27.330Z,2028.00
2022-08-19T09:50:27.427Z,2436.00
2022-08-19T09:51:27.583Z,2760.00
2022-08-19T09:52:32.830Z,2520.00
2022-08-19T09:53:28.954Z,2248.00
2022-08-19T09:54:28.200Z,2148.00
2022-08-19T09:55:31.950Z,2588.00
2022-08-19T09:56:28.547Z,3664.00
2022-08-19T09:57:28.649Z,4192.00
2022-08-19T09:58:28.840Z,3936.00
2022-08-19T09:59:29.079Z,3312.00
2022-08-19T10:00:29.206Z,2808.00
2022-08-19T10:01:29.398Z,2504.00
2022-08-19T10:02:29.520Z,2284.00
2022-08-19T10:03:30.147Z,2108.00
2022-08-19T10:04:29.836Z,2048.00
2022-08-19T10:05:30.056Z,2140.00
2022-08-19T10:06:43.990Z,2324.00
2022-08-19T10:07:36.526Z,2608.00
2022-08-19T10:08:31.626Z,2336.00
2022-08-19T10:09:34.423Z,1868.00
2022-08-19T10:10:30.926Z,1936.00
2022-08-19T10:11:39.507Z,2100.00
2022-08-19T10:12:32.196Z,2264.00
2022-08-19T10:13:31.882Z,2620.00
2022-08-19T10:14:31.557Z,3408.00
2022-08-19T10:15:31.827Z,4168.00
2022-08-19T10:16:32.919Z,5448.00
2022-08-19T10:17:33.542Z,4932.00
2022-08-19T10:18:32.394Z,4840.00
2022-08-19T10:19:32.506Z,4608.00
2022-08-19T10:20:32.628Z,3264.00
2022-08-19T10:21:32.818Z,3220.00
2022-08-19T10:22:33.027Z,3608.00
2022-08-19T10:23:33.643Z,4924.00
2022-08-19T10:24:33.351Z,4680.00
2022-08-19T10:25:33.637Z,3752.00
2022-08-19T10:26:33.709Z,3348.00
2022-08-19T10:27:33.879Z,3844.00
2022-08-19T10:28:34.138Z,4448.00
2022-08-19T10:29:34.288Z,4816.00
2022-08-19T10:30:34.491Z,4816.00
2022-08-19T10:32:00.898Z,4620.00
2022-08-19T10:32:35.800Z,4712.00
2022-08-19T10:33:53.038Z,4036.00
2022-08-19T10:34:36.162Z,3432.00
2022-08-19T10:35:42.609Z,2920.00
2022-08-19T10:36:36.472Z,2884.00
2022-08-19T10:37:36.669Z,2892.00
2022-08-19T10:38:36.839Z,2768.00
2022-08-19T10:39:42.986Z,2772.00
2022-08-19T10:40:37.161Z,2948.00
2022-08-19T10:41:36.404Z,2572.00
2022-08-19T10:42:36.539Z,3348.00
2022-08-19T10:43:36.736Z,4156.00
2022-08-19T10:44:36.966Z,3572.00
2022-08-19T10:45:37.084Z,2908.00
2022-08-19T10:46:38.263Z,3152.00
2022-08-19T10:47:37.454Z,3708.00
2022-08-19T10:48:37.642Z,5180.00
2022-08-19T10:49:37.793Z,5960.00
2022-08-19T10:50:38.038Z,6080.00
2022-08-19T10:51:38.154Z,6084.00
2022-08-19T10:52:39.342Z,4912.00
2022-08-19T10:53:39.611Z,4900.00
2022-08-19T10:54:38.674Z,3992.00
2022-08-19T10:55:38.925Z,4284.00
2022-08-19T10:56:39.019Z,4252.00
2022-08-19T10:58:01.780Z,4856.00
2022-08-19T10:58:40.435Z,4940.00
2022-08-19T10:59:39.575Z,5196.00
2022-08-19T11:00:39.693Z,3952.00
2022-08-19T11:01:39.951Z,3728.00
2022-08-19T11:02:40.111Z,3324.00
2022-08-19T11:03:40.255Z,2972.00
2022-08-19T11:04:40.424Z,3156.00
2022-08-19T11:05:40.834Z,3576.00
2022-08-19T11:06:40.779Z,3592.00
2022-08-19T11:07:40.956Z,3220.00
2022-08-19T11:08:41.209Z,3048.00
2022-08-19T11:09:41.304Z,2788.00
2022-08-19T11:10:41.483Z,2872.00
2022-08-19T11:11:42.746Z,2848.00
2022-08-19T11:12:41.852Z,2808.00
2022-08-19T11:13:42.106Z,2604.00
2022-08-19T11:14:42.195Z,2664.00
2022-08-19T11:15:42.426Z,2720.00
2022-08-19T11:16:42.535Z,2952.00
2022-08-19T11:17:42.706Z,2860.00
2022-08-19T11:18:42.947Z,2756.00
2022-08-19T11:19:43.066Z,3116.00
2022-08-19T11:20:43.236Z,3392.00
2022-08-19T11:21:43.432Z,3660.00
2022-08-19T11:22:43.596Z,3744.00
2022-08-19T11:23:43.786Z,3700.00
2022-08-19T11:24:43.967Z,3940.00
2022-08-19T11:25:44.137Z,4064.00
2022-08-19T11:26:44.307Z,4080.00
2022-08-19T11:27:44.477Z,4124.00
2022-08-19T11:28:44.718Z,3544.00
2022-08-19T11:29:44.905Z,3492.00
2022-08-19T11:30:45.025Z,3480.00
2022-08-19T11:31:45.220Z,3624.00
2022-08-19T11:32:49.196Z,3208.00
2022-08-19T11:33:47.192Z,2964.00
2022-08-19T11:34:45.869Z,3080.00
2022-08-19T11:35:45.918Z,3352.00
2022-08-19T11:36:46.089Z,2920.00
2022-08-19T11:37:46.298Z,3008.00
2022-08-19T11:38:46.458Z,2744.00
2022-08-19T11:39:46.762Z,2144.00
2022-08-19T11:40:47.800Z,1996.00
2022-08-19T11:41:46.979Z,2352.00
2022-08-19T11:42:47.204Z,2448.00
2022-08-19T11:43:47.345Z,2200.00
2022-08-19T11:44:47.519Z,2132.00
2022-08-19T11:45:47.779Z,2108.00
2022-08-19T11:46:47.905Z,2176.00
2022-08-19T11:47:48.094Z,2552.00
2022-08-19T11:48:48.318Z,2516.00
2022-08-19T11:49:48.473Z,2868.00
2022-08-19T11:50:48.660Z,2888.00
2022-08-19T11:51:48.792Z,3520.00
2022-08-19T11:52:49.028Z,4228.00
2022-08-19T11:53:49.161Z,4364.00
2022-08-19T11:54:49.310Z,5072.00
2022-08-19T11:55:49.583Z,5104.00
2022-08-19T11:56:49.672Z,4340.00
2022-08-19T11:57:49.862Z,3536.00
2022-08-19T11:58:50.042Z,3384.00
2022-08-19T11:59:50.200Z,3728.00
2022-08-19T12:00:51.423Z,3680.00
2022-08-19T12:01:50.520Z,3624.00
2022-08-19T12:02:50.683Z,4160.00
2022-08-19T12:03:51.031Z,5020.00
2022-08-19T12:04:51.034Z,5188.00
2022-08-19T12:05:51.218Z,5048.00
2022-08-19T12:06:51.441Z,4432.00
2022-08-19T12:07:51.574Z,4716.00
2022-08-19T12:08:51.752Z,3996.00
2022-08-19T12:09:51.945Z,3816.00
2022-08-19T12:10:52.082Z,4472.00
2022-08-19T12:11:52.301Z,5944.00
2022-08-19T12:12:58.071Z,5044.00
2022-08-19T12:13:53.685Z,4508.00
2022-08-19T12:14:52.754Z,5080.00
2022-08-19T12:15:52.926Z,5476.00
2022-08-19T12:16:53.108Z,5524.00
2022-08-19T12:17:53.444Z,5352.00
2022-08-19T12:18:53.436Z,3604.00
2022-08-19T12:19:53.599Z,3020.00
2022-08-19T12:20:53.745Z,2760.00
2022-08-19T12:21:53.969Z,2772.00
2022-08-19T12:22:54.133Z,2460.00
2022-08-19T12:23:55.925Z,2416.00
2022-08-19T12:24:54.446Z,2312.00
2022-08-19T12:25:54.657Z,2444.00
2022-08-19T12:26:54.767Z,3068.00
2022-08-19T12:27:57.665Z,3080.00
2022-08-19T12:28:55.182Z,2916.00